Time;durP1;ratioP1;P1;durP2;ratioP2;P2;SDS_P1;SDS_P2;PMS_P1;PMS_P2;Temp;Humidity;BMP_temperature;BMP_pressure;BME280_temperature;BME280_humidity;BME280_pressure;Samples;Min_cycle;Max_cycle;Signal;HPM_P1;HPM_P2
2023/08/15 00:00:18;;;;;;;14.67;13.37;;;21.40;99.90;;;;;;5090812;28;20438;-67
2023/08/15 00:02:47;;;;;;;14.37;13.17;;;21.30;99.90;;;;;;5089522;28;20940;-67
2023/08/15 00:05:15;;;;;;;14.37;13.27;;;21.20;99.90;;;;;;5090255;28;20476;-67
2023/08/15 00:07:43;;;;;;;15.67;14.17;;;21.20;99.90;;;;;;5090843;28;20443;-67
2023/08/15 00:10:11;;;;;;;17.13;15.40;;;21.30;99.90;;;;;;5090448;28;20496;-67
2023/08/15 00:12:39;;;;;;;16.57;15.27;;;21.40;99.90;;;;;;5089401;28;20537;-66
2023/08/15 00:15:09;;;;;;;15.10;13.87;;;21.50;99.90;;;;;;5090591;28;20490;-66
2023/08/15 00:17:37;;;;;;;14.40;13.23;;;21.60;99.90;;;;;;5090824;28;20487;-67
2023/08/15 00:20:08;;;;;;;14.10;13.00;;;21.50;99.90;;;;;;5090416;28;20503;-67
2023/08/15 00:22:36;;;;;;;13.93;12.73;;;21.30;99.90;;;;;;5089112;28;21023;-66
2023/08/15 00:25:04;;;;;;;13.67;11.97;;;21.20;99.90;;;;;;5090341;28;20914;-66
2023/08/15 00:27:32;;;;;;;14.50;13.10;;;21.20;99.90;;;;;;5090241;28;20500;-67
2023/08/15 00:30:00;;;;;;;14.33;13.13;;;21.10;99.90;;;;;;5090239;28;20976;-67
2023/08/15 00:32:28;;;;;;;13.93;12.83;;;21.10;99.90;;;;;;5089256;28;20511;-66
2023/08/15 00:34:56;;;;;;;14.03;13.03;;;21.20;99.90;;;;;;5090307;28;20523;-67
2023/08/15 00:37:25;;;;;;;13.87;12.77;;;21.20;99.90;;;;;;5090093;28;20446;-67
2023/08/15 00:39:53;;;;;;;15.37;14.17;;;21.20;99.90;;;;;;5090108;28;20446;-65
2023/08/15 00:42:21;;;;;;;17.10;15.70;;;21.30;99.90;;;;;;5089614;28;20468;-66
2023/08/15 00:44:49;;;;;;;15.17;14.00;;;21.30;99.90;;;;;;5090099;28;20490;-67
2023/08/15 00:47:18;;;;;;;14.63;13.53;;;21.30;99.90;;;;;;5090311;28;20478;-67
2023/08/15 00:49:47;;;;;;;16.20;14.30;;;21.30;99.90;;;;;;5090341;28;20453;-66
2023/08/15 00:52:17;;;;;;;15.10;12.70;;;21.30;99.90;;;;;;5089693;28;20440;-66
2023/08/15 00:54:48;;;;;;;14.33;13.20;;;21.30;99.90;;;;;;5088752;28;20462;-68
2023/08/15 00:57:16;;;;;;;15.10;13.43;;;21.30;99.90;;;;;;5090045;28;20521;-67
2023/08/15 00:59:45;;;;;;;13.93;12.83;;;21.30;99.90;;;;;;5089948;28;21017;-67
2023/08/15 01:02:13;;;;;;;14.47;13.20;;;21.20;99.90;;;;;;5089761;28;20445;-66
2023/08/15 01:04:41;;;;;;;14.17;12.93;;;21.20;99.90;;;;;;5089089;28;20463;-67
2023/08/15 01:07:10;;;;;;;13.93;12.87;;;21.10;99.90;;;;;;5089832;28;20452;-67
2023/08/15 01:09:38;;;;;;;15.23;13.83;;;21.10;99.90;;;;;;5089283;28;20688;-67
2023/08/15 01:12:16;;;;;;;13.70;12.70;;;21.10;99.90;;;;;;5089578;28;20453;-67
2023/08/15 01:14:50;;;;;;;13.60;12.50;;;21.10;99.90;;;;;;5089112;28;21013;-67
2023/08/15 01:17:28;;;;;;;13.03;11.93;;;21.00;99.90;;;;;;5089736;28;20454;-66
2023/08/15 01:20:00;;;;;;;12.90;11.80;;;21.00;99.90;;;;;;5089600;28;21084;-67
2023/08/15 01:22:31;;;;;;;876.97;363.50;;;20.90;99.90;;;;;;5088590;28;20486;-67
2023/08/15 01:25:00;;;;;;;13.93;12.60;;;20.90;99.90;;;;;;5089252;28;20983;-67
2023/08/15 01:27:28;;;;;;;1999.90;999.90;;;20.90;99.90;;;;;;5089365;28;20533;-67
2023/08/15 01:29:56;;;;;;;458.40;74.30;;;20.80;99.90;;;;;;5089593;28;20448;-67
2023/08/15 01:32:37;;;;;;;14.10;12.90;;;20.80;99.90;;;;;;5088391;28;20438;-65
2023/08/15 01:35:10;;;;;;;1999.90;999.90;;;20.80;99.90;;;;;;5089707;28;20879;-67
2023/08/15 01:37:40;;;;;;;1999.90;999.90;;;20.70;99.90;;;;;;5089741;28;20821;-66
2023/08/15 01:40:11;;;;;;;1999.90;999.90;;;20.70;99.90;;;;;;5089477;28;21152;-66
2023/08/15 01:42:41;;;;;;;1999.90;999.90;;;20.60;99.90;;;;;;5088051;28;20446;-65
2023/08/15 01:45:11;;;;;;;1999.90;999.90;;;20.60;99.90;;;;;;5089156;28;21020;-66
2023/08/15 01:47:40;;;;;;;1999.90;999.90;;;20.80;99.90;;;;;;5089835;28;20477;-66
2023/08/15 01:50:09;;;;;;;1999.90;999.90;;;20.90;99.90;;;;;;5089244;28;20855;-67
2023/08/15 01:52:36;;;;;;;1999.90;999.90;;;20.90;99.90;;;;;;5088233;28;20442;-66
2023/08/15 01:55:05;;;;;;;1999.90;999.90;;;20.90;99.90;;;;;;5089225;28;20564;-67
2023/08/15 01:57:34;;;;;;;1999.90;999.90;;;20.80;99.90;;;;;;5089261;28;20528;-67
2023/08/15 02:00:02;;;;;;;1999.90;999.90;;;20.70;99.90;;;;;;5089410;28;20446;-66
2023/08/15 02:02:31;;;;;;;1999.90;999.90;;;20.70;99.90;;;;;;5087225;28;20453;-67
2023/08/15 02:05:01;;;;;;;1999.90;999.90;;;20.60;99.90;;;;;;5088724;28;20478;-67
2023/08/15 02:07:30;;;;;;;1999.90;999.90;;;20.50;99.90;;;;;;5089690;28;20500;-67
2023/08/15 02:09:58;;;;;;;1999.90;999.90;;;20.50;99.90;;;;;;5092740;28;20536;-67
2023/08/15 02:12:25;;;;;;;1999.90;999.90;;;20.50;99.90;;;;;;5091952;28;20442;-67
2023/08/15 02:14:55;;;;;;;1999.90;999.90;;;20.50;99.90;;;;;;5092808;28;20527;-66
2023/08/15 02:17:23;;;;;;;1999.90;999.90;;;20.40;99.90;;;;;;5092627;28;20994;-67
2023/08/15 02:19:51;;;;;;;1999.90;999.90;;;20.40;99.90;;;;;;5092690;28;20449;-66
2023/08/15 02:22:19;;;;;;;1999.90;999.90;;;20.40;99.90;;;;;;5091749;28;20457;-66
2023/08/15 02:24:47;;;;;;;1999.90;999.90;;;20.40;99.90;;;;;;5091937;28;20458;-67
2023/08/15 02:27:15;;;;;;;1999.90;999.90;;;20.40;99.90;;;;;;5092594;28;20483;-67
2023/08/15 02:29:43;;;;;;;1999.90;999.90;;;20.40;99.90;;;;;;5092670;28;20449;-66
2023/08/15 02:32:12;;;;;;;1999.90;999.90;;;20.40;99.90;;;;;;5092287;28;20446;-66
2023/08/15 02:34:40;;;;;;;1999.90;999.90;;;20.40;99.90;;;;;;5091718;28;21029;-67
2023/08/15 02:37:08;;;;;;;1999.90;999.90;;;20.40;99.90;;;;;;5092265;28;20824;-67
2023/08/15 02:39:36;;;;;;;1999.90;999.90;;;20.50;99.90;;;;;;5092722;28;20466;-67
2023/08/15 02:42:04;;;;;;;1999.90;999.90;;;20.60;99.90;;;;;;5092568;28;20446;-66
2023/08/15 02:44:33;;;;;;;1999.90;999.90;;;20.70;99.90;;;;;;5091754;28;20442;-66
2023/08/15 02:47:01;;;;;;;1999.90;999.90;;;20.70;99.90;;;;;;5092346;28;20474;-66
2023/08/15 02:49:31;;;;;;;1999.90;999.90;;;20.60;99.90;;;;;;5092281;28;20519;-67
2023/08/15 02:51:59;;;;;;;1999.90;999.90;;;20.60;99.90;;;;;;5092226;28;20978;-66
2023/08/15 02:54:27;;;;;;;1999.90;999.90;;;20.60;99.90;;;;;;5091015;28;20451;-67
2023/08/15 02:56:55;;;;;;;1999.90;999.90;;;20.50;99.90;;;;;;5092349;28;20442;-68
2023/08/15 02:59:23;;;;;;;1999.90;999.90;;;20.50;99.90;;;;;;5092177;28;20478;-68
2023/08/15 03:01:51;;;;;;;1999.90;999.90;;;20.50;99.90;;;;;;5091960;28;20442;-67
2023/08/15 03:04:19;;;;;;;1999.90;999.90;;;20.50;99.90;;;;;;5090626;28;20477;-68
2023/08/15 03:06:48;;;;;;;1999.90;999.90;;;20.50;99.90;;;;;;5091709;28;20478;-67
2023/08/15 03:09:16;;;;;;;1999.90;999.90;;;20.60;99.90;;;;;;5091865;28;20474;-67
2023/08/15 03:11:44;;;;;;;1999.90;999.90;;;20.50;99.90;;;;;;5091483;28;20454;-66
2023/08/15 03:14:12;;;;;;;1999.90;999.90;;;20.50;99.90;;;;;;5090621;28;20492;-67
2023/08/15 03:16:40;;;;;;;1999.90;999.90;;;20.50;99.90;;;;;;5091393;28;20446;-66
2023/08/15 03:19:08;;;;;;;1999.90;999.90;;;20.50;99.90;;;;;;5091703;28;20465;-67
2023/08/15 03:21:36;;;;;;;1999.90;999.90;;;20.50;99.90;;;;;;5091690;28;20442;-67
2023/08/15 03:24:06;;;;;;;1999.90;999.90;;;20.50;99.90;;;;;;5090554;28;20450;-67
2023/08/15 03:26:34;;;;;;;1999.90;999.90;;;20.50;99.90;;;;;;5091093;28;20480;-66
2023/08/15 03:29:02;;;;;;;1999.90;999.90;;;20.50;99.90;;;;;;5091259;28;20446;-67
2023/08/15 03:31:29;;;;;;;1999.90;999.90;;;20.60;99.90;;;;;;5091297;28;20438;-67
2023/08/15 03:33:58;;;;;;;1999.90;999.90;;;20.60;99.90;;;;;;5090071;28;20475;-67
2023/08/15 03:36:25;;;;;;;1999.90;999.90;;;20.70;99.90;;;;;;5091359;28;20541;-67
2023/08/15 03:38:53;;;;;;;1999.90;999.90;;;20.70;99.90;;;;;;5091304;28;20503;-67
2023/08/15 03:41:23;;;;;;;1999.90;999.90;;;20.60;99.90;;;;;;5091467;28;20949;-66
2023/08/15 03:43:51;;;;;;;1999.90;999.90;;;20.60;99.90;;;;;;5089641;28;20454;-67
2023/08/15 03:46:19;;;;;;;1999.90;999.90;;;20.60;99.90;;;;;;5091131;28;20958;-67
2023/08/15 03:48:48;;;;;;;1999.90;999.90;;;20.70;99.90;;;;;;5091559;28;20442;-67
2023/08/15 03:51:15;;;;;;;1999.90;999.90;;;20.70;99.90;;;;;;5090790;28;20921;-67
2023/08/15 03:54:04;;;;;;;1999.90;999.90;;;20.60;99.90;;;;;;5089990;28;20445;-67
2023/08/15 03:56:33;;;;;;;1999.90;999.90;;;20.60;99.90;;;;;;5091024;28;20462;-67
2023/08/15 03:59:01;;;;;;;1999.90;999.90;;;20.60;99.90;;;;;;5091199;28;20515;-67
2023/08/15 04:01:29;;;;;;;1999.90;999.90;;;20.60;99.90;;;;;;5090859;28;20458;-67
2023/08/15 04:03:57;;;;;;;1999.90;999.90;;;20.50;99.90;;;;;;5089337;28;20511;-67
2023/08/15 04:06:25;;;;;;;1999.90;999.90;;;20.70;99.90;;;;;;5069970;28;20479;-67
2023/08/15 04:08:53;;;;;;;1999.90;999.90;;;20.70;99.90;;;;;;5070360;28;20454;-67
2023/08/15 04:11:21;;;;;;;1999.90;999.90;;;20.60;99.90;;;;;;5070550;28;20443;-67
2023/08/15 04:13:50;;;;;;;1999.90;999.90;;;20.40;99.90;;;;;;5069176;28;20443;-66
2023/08/15 04:16:19;;;;;;;1999.90;999.90;;;20.30;99.90;;;;;;5070323;28;21076;-67
2023/08/15 04:18:47;;;;;;;1999.90;999.90;;;20.30;99.90;;;;;;5070136;28;20761;-66
2023/08/15 04:21:15;;;;;;;1999.90;999.90;;;20.30;99.90;;;;;;5078190;28;20537;-66
2023/08/15 04:23:43;;;;;;;1999.90;999.90;;;20.40;99.90;;;;;;5089492;28;20446;-66
2023/08/15 04:26:11;;;;;;;1999.90;999.90;;;20.40;99.90;;;;;;5090505;28;20557;-67
2023/08/15 04:28:39;;;;;;;1999.90;999.90;;;20.50;99.90;;;;;;5090458;28;20477;-68
2023/08/15 04:31:08;;;;;;;1999.90;999.90;;;20.60;99.90;;;;;;5089919;28;20465;-68
2023/08/15 04:33:36;;;;;;;1999.90;999.90;;;20.60;99.90;;;;;;5089265;28;20470;-66
2023/08/15 04:36:04;;;;;;;1999.90;999.90;;;20.60;99.90;;;;;;5090598;28;20519;-67
2023/08/15 04:38:32;;;;;;;1999.90;999.90;;;20.50;99.90;;;;;;5090439;28;20446;-66
2023/08/15 04:41:00;;;;;;;1999.90;999.90;;;20.40;99.90;;;;;;5090440;28;20451;-67
2023/08/15 04:43:29;;;;;;;1999.90;999.90;;;20.30;99.90;;;;;;5089057;28;21031;-66
2023/08/15 04:45:57;;;;;;;1999.90;999.90;;;20.30;99.90;;;;;;5090084;28;20508;-66
2023/08/15 04:48:26;;;;;;;1999.90;999.90;;;20.20;99.90;;;;;;5089951;28;20525;-66
2023/08/15 04:50:54;;;;;;;1999.90;999.90;;;20.20;99.90;;;;;;5089951;28;20446;-67
2023/08/15 04:53:22;;;;;;;1999.90;999.90;;;20.10;99.90;;;;;;5088577;28;20446;-67
2023/08/15 04:55:50;;;;;;;1999.90;999.90;;;20.10;99.90;;;;;;5089837;28;20531;-67
2023/08/15 04:58:18;;;;;;;1999.90;999.90;;;20.10;99.90;;;;;;5090038;28;20439;-67
2023/08/15 05:00:46;;;;;;;1999.90;999.90;;;20.10;99.90;;;;;;5089756;28;20519;-67
2023/08/15 05:03:14;;;;;;;1999.90;999.90;;;20.20;99.90;;;;;;5088753;28;20446;-67
2023/08/15 05:05:43;;;;;;;1999.90;999.90;;;20.20;99.90;;;;;;5089706;28;20462;-67
2023/08/15 05:08:12;;;;;;;1999.90;999.90;;;20.20;99.90;;;;;;5089706;28;20474;-65
2023/08/15 05:10:40;;;;;;;1999.90;999.90;;;20.30;99.90;;;;;;5089690;28;20486;-67
2023/08/15 05:13:08;;;;;;;1999.90;999.90;;;20.40;99.90;;;;;;5088537;28;20913;-66
2023/08/15 05:15:36;;;;;;;1999.90;999.90;;;20.60;99.90;;;;;;5089951;28;20457;-66
2023/08/15 05:18:04;;;;;;;1999.90;999.90;;;20.70;99.90;;;;;;5089823;28;20442;-67
2023/08/15 05:20:34;;;;;;;1999.90;999.90;;;20.80;99.90;;;;;;5089816;28;20470;-66
2023/08/15 05:23:03;;;;;;;1999.90;999.90;;;20.80;99.90;;;;;;5088450;28;20438;-67
2023/08/15 05:25:31;;;;;;;1999.90;999.90;;;20.90;99.90;;;;;;5089478;28;20968;-68
2023/08/15 05:28:03;;;;;;;1999.90;999.90;;;21.10;99.90;;;;;;5089007;28;21127;-67
2023/08/15 05:30:31;;;;;;;1999.90;999.90;;;21.30;99.90;;;;;;5089686;28;20438;-66
2023/08/15 05:32:59;;;;;;;1999.90;999.90;;;21.40;99.90;;;;;;5088539;28;20824;-68
2023/08/15 05:35:28;;;;;;;1999.90;999.90;;;21.50;99.90;;;;;;5089291;28;20562;-68
2023/08/15 05:37:56;;;;;;;1999.90;999.90;;;21.50;99.90;;;;;;5089565;28;20469;-68
2023/08/15 05:40:26;;;;;;;1999.90;999.90;;;21.60;99.90;;;;;;5089272;28;20442;-68
2023/08/15 05:42:54;;;;;;;1999.90;999.90;;;21.60;99.90;;;;;;5089326;28;20503;-68
2023/08/15 05:45:22;;;;;;;1999.90;999.90;;;21.60;99.90;;;;;;5093686;28;20462;-68
2023/08/15 05:47:50;;;;;;;1999.90;999.90;;;21.60;99.90;;;;;;5093375;28;20951;-68
2023/08/15 05:50:18;;;;;;;1999.90;999.90;;;21.70;99.90;;;;;;5093282;28;20469;-67
2023/08/15 05:52:46;;;;;;;1999.90;999.90;;;21.70;99.90;;;;;;5092155;28;20444;-67
2023/08/15 05:55:14;;;;;;;1999.90;999.90;;;21.80;99.90;;;;;;5093116;28;20552;-67
2023/08/15 05:57:44;;;;;;;1999.90;999.90;;;21.80;99.90;;;;;;5093493;28;20465;-67
2023/08/15 06:00:13;;;;;;;1999.90;999.90;;;22.00;99.90;;;;;;5093344;28;20450;-67
2023/08/15 06:02:42;;;;;;;1999.90;999.90;;;22.20;99.90;;;;;;5092105;28;20446;-67
2023/08/15 06:05:10;;;;;;;1999.90;999.90;;;22.40;99.90;;;;;;5091081;28;20476;-68
2023/08/15 06:07:38;;;;;;;1999.90;999.90;;;22.50;99.90;;;;;;5093106;28;20470;-67
2023/08/15 06:10:07;;;;;;;1999.90;999.90;;;22.50;99.90;;;;;;5092458;28;20562;-67
2023/08/15 06:12:35;;;;;;;1999.90;999.90;;;22.70;99.90;;;;;;5091779;28;20442;-67
2023/08/15 06:15:05;;;;;;;1999.90;999.90;;;22.60;99.90;;;;;;5092837;28;20458;-67
2023/08/15 06:17:33;;;;;;;1999.90;999.90;;;22.50;99.90;;;;;;5092673;28;20500;-67
2023/08/15 06:20:01;;;;;;;1999.90;999.90;;;22.40;99.90;;;;;;5093091;28;20442;-67
2023/08/15 06:22:29;;;;;;;1999.90;999.90;;;22.40;99.90;;;;;;5091688;28;20447;-67
2023/08/15 06:24:57;;;;;;;1999.90;999.90;;;22.50;99.90;;;;;;5092430;28;20523;-66
2023/08/15 06:27:25;;;;;;;1999.90;999.90;;;22.60;99.90;;;;;;5092796;28;20872;-68
2023/08/15 06:29:53;;;;;;;1999.90;999.90;;;22.80;99.90;;;;;;5092742;28;20483;-67
2023/08/15 06:32:29;;;;;;;1999.90;999.90;;;23.00;99.90;;;;;;5092558;28;20442;-67
2023/08/15 06:34:57;;;;;;;1999.90;999.90;;;23.10;99.90;;;;;;5092928;28;20465;-68
2023/08/15 06:37:25;;;;;;;1999.90;999.90;;;23.10;99.90;;;;;;5092845;28;20492;-68
2023/08/15 06:39:53;;;;;;;1999.90;999.90;;;23.10;99.90;;;;;;5092629;28;20489;-67
2023/08/15 06:42:21;;;;;;;1999.90;999.90;;;23.10;99.90;;;;;;5091960;28;20511;-68
2023/08/15 06:44:49;;;;;;;1999.90;999.90;;;23.00;99.90;;;;;;5092189;28;20907;-66
2023/08/15 06:47:17;;;;;;;1999.90;999.90;;;23.00;99.90;;;;;;5092321;28;20499;-68
2023/08/15 06:49:50;;;;;;;1999.90;999.90;;;23.00;99.90;;;;;;5092038;28;20553;-68
2023/08/15 06:52:18;;;;;;;1999.90;999.90;;;23.20;99.90;;;;;;5091951;28;20446;-67
2023/08/15 06:54:46;;;;;;;1999.90;999.90;;;23.30;99.90;;;;;;5091064;28;20458;-68
2023/08/15 06:57:14;;;;;;;1999.90;999.90;;;23.50;99.90;;;;;;5092021;28;20442;-67
2023/08/15 06:59:42;;;;;;;1999.90;999.90;;;23.50;99.90;;;;;;5092327;28;20444;-67
2023/08/15 07:02:10;;;;;;;1999.90;999.90;;;23.50;99.90;;;;;;5091682;28;20442;-68
2023/08/15 07:04:40;;;;;;;1999.90;999.90;;;23.50;99.90;;;;;;5090990;28;20447;-68
2023/08/15 07:07:10;;;;;;;1999.90;999.90;;;23.60;99.90;;;;;;5091913;28;20534;-68
2023/08/15 07:09:38;;;;;;;1999.90;999.90;;;23.80;99.90;;;;;;5091685;28;20535;-68
2023/08/15 07:12:06;;;;;;;1999.90;999.90;;;23.80;99.90;;;;;;5091608;28;20442;-68
2023/08/15 07:14:35;;;;;;;1999.90;999.90;;;24.00;99.90;;;;;;5090917;28;20850;-68
2023/08/15 07:17:03;;;;;;;1999.90;999.90;;;24.30;99.90;;;;;;5091685;28;20469;-68
2023/08/15 07:19:30;;;;;;;1999.90;999.90;;;24.60;99.90;;;;;;5091258;28;21003;-68
2023/08/15 07:21:58;;;;;;;1999.90;999.90;;;24.80;99.90;;;;;;5091559;28;20965;-67
2023/08/15 07:24:28;;;;;;;1999.90;999.90;;;25.20;99.90;;;;;;5090395;28;20620;-68
2023/08/15 07:26:56;;;;;;;1999.90;999.90;;;25.30;99.90;;;;;;5091456;28;21009;-67
2023/08/15 07:29:24;;;;;;;1999.90;999.90;;;25.50;99.90;;;;;;5091362;28;20508;-67
2023/08/15 07:31:52;;;;;;;1999.90;999.90;;;25.80;99.90;;;;;;5091510;28;20474;-67
2023/08/15 07:34:20;;;;;;;1999.90;999.90;;;26.00;99.90;;;;;;5090196;28;20495;-68
2023/08/15 07:36:48;;;;;;;1999.90;999.90;;;25.90;99.90;;;;;;5091118;28;20447;-67
2023/08/15 07:39:16;;;;;;;1999.90;999.90;;;25.90;99.90;;;;;;5091581;28;20442;-68
2023/08/15 07:41:45;;;;;;;1999.90;999.90;;;26.00;99.90;;;;;;5091317;28;20450;-68
2023/08/15 07:44:13;;;;;;;1999.90;999.90;;;26.00;99.90;;;;;;5090143;28;20932;-68
2023/08/15 07:46:41;;;;;;;1999.90;999.90;;;26.00;99.90;;;;;;5091118;28;20474;-67
2023/08/15 07:49:10;;;;;;;1999.90;999.90;;;26.10;99.90;;;;;;5091059;28;20901;-67
2023/08/15 07:51:38;;;;;;;1999.90;999.90;;;26.30;99.90;;;;;;5090613;28;20461;-68
2023/08/15 07:54:06;;;;;;;1999.90;999.90;;;26.60;99.90;;;;;;5089936;28;20514;-68
2023/08/15 07:56:34;;;;;;;1999.90;999.90;;;26.70;99.90;;;;;;5090888;28;20536;-68
2023/08/15 07:59:04;;;;;;;1999.90;999.90;;;27.00;99.90;;;;;;5090876;28;20932;-68
2023/08/15 08:01:32;;;;;;;1999.90;999.90;;;27.30;99.90;;;;;;5090604;28;20433;-67
2023/08/15 08:04:00;;;;;;;1999.90;999.90;;;27.60;99.90;;;;;;5089305;28;20200;-68
2023/08/15 08:06:28;;;;;;;1999.90;999.90;;;27.80;99.90;;;;;;5090206;28;20491;-68
2023/08/15 08:09:00;;;;;;;1999.90;999.90;;;27.90;99.90;;;;;;5090546;28;20482;-67
2023/08/15 08:11:28;;;;;;;1999.90;999.90;;;27.60;99.90;;;;;;5090999;28;20455;-67
2023/08/15 08:13:56;;;;;;;1999.90;999.90;;;27.60;99.90;;;;;;5089355;28;20454;-67
2023/08/15 08:16:25;;;;;;;1999.90;999.90;;;27.50;99.90;;;;;;5090420;28;20886;-68
2023/08/15 08:18:53;;;;;;;1999.90;999.90;;;27.70;99.90;;;;;;5090425;28;20994;-68
2023/08/15 08:21:22;;;;;;;1999.90;999.90;;;27.60;99.90;;;;;;5090463;28;20448;-67
2023/08/15 08:23:49;;;;;;;1999.90;999.90;;;27.60;99.90;;;;;;5089307;28;20549;-68
2023/08/15 08:26:17;;;;;;;1999.90;999.90;;;27.80;99.90;;;;;;5090574;28;20466;-69
2023/08/15 08:28:45;;;;;;;1999.90;999.90;;;28.00;99.90;;;;;;5090573;28;20446;-68
2023/08/15 08:31:13;;;;;;;1999.90;999.90;;;28.00;99.90;;;;;;5090828;28;20491;-68
2023/08/15 08:33:43;;;;;;;1999.90;999.90;;;28.10;99.90;;;;;;5089389;28;20549;-68
2023/08/15 08:36:10;;;;;;;1999.90;999.90;;;28.30;99.90;;;;;;5090573;28;20497;-68
2023/08/15 08:38:38;;;;;;;1999.90;999.90;;;28.50;99.90;;;;;;5090310;28;20442;-68
2023/08/15 08:41:06;;;;;;;1999.90;999.90;;;28.70;99.90;;;;;;5090248;28;20442;-68
2023/08/15 08:43:34;;;;;;;1999.90;999.90;;;29.00;99.90;;;;;;5088884;28;20482;-68
2023/08/15 08:46:05;;;;;;;1999.90;999.90;;;29.20;99.90;;;;;;5090127;28;20480;-68
2023/08/15 08:48:33;;;;;;;1999.90;999.90;;;29.40;99.90;;;;;;5090105;28;20531;-68
2023/08/15 08:51:06;;;;;;;1999.90;999.90;;;29.30;99.90;;;;;;5089923;28;21070;-68
2023/08/15 08:53:34;;;;;;;1999.90;999.90;;;29.40;99.90;;;;;;5088508;28;20499;-69
2023/08/15 08:56:03;;;;;;;1999.90;999.90;;;29.50;99.90;;;;;;5089919;28;20975;-68
2023/08/15 08:58:31;;;;;;;1999.90;999.90;;;29.70;99.90;;;;;;5090123;28;20502;-69
2023/08/15 09:01:02;;;;;;;1999.90;999.90;;;29.80;99.90;;;;;;5089929;28;20438;-68
2023/08/15 09:03:30;;;;;;;1999.90;999.90;;;29.80;99.90;;;;;;5088884;28;20527;-68
2023/08/15 09:05:58;;;;;;;1999.90;999.90;;;30.00;99.90;;;;;;5089426;28;20469;-69
2023/08/15 09:08:28;;;;;;;1999.90;999.90;;;29.90;99.90;;;;;;5089694;28;20438;-68
2023/08/15 09:10:56;;;;;;;1999.90;999.90;;;29.80;99.90;;;;;;5089910;28;20486;-68
2023/08/15 09:13:24;;;;;;;1999.90;999.90;;;29.80;99.90;;;;;;5088574;28;20997;-66
2023/08/15 09:15:56;;;;;;;1999.90;999.90;;;29.80;99.90;;;;;;5089698;28;21031;-68
2023/08/15 09:18:26;;;;;;;1999.90;999.90;;;29.70;99.90;;;;;;5095913;28;20470;-68
2023/08/15 09:20:54;;;;;;;1999.90;999.90;;;29.70;99.90;;;;;;5096237;28;20446;-68
2023/08/15 09:23:22;;;;;;;1999.90;999.90;;;30.00;99.90;;;;;;5095341;28;20825;-67
2023/08/15 09:25:55;;;;;;;1999.90;999.90;;;30.20;99.90;;;;;;5096068;28;20512;-68
2023/08/15 09:28:23;;;;;;;1999.90;999.90;;;30.40;99.90;;;;;;5096421;28;20434;-67
2023/08/15 09:30:53;;;;;;;1999.90;999.90;;;30.60;99.90;;;;;;5096194;28;20850;-68
2023/08/15 09:33:21;;;;;;;1999.90;999.90;;;30.90;99.90;;;;;;5095085;28;20448;-68
2023/08/15 09:35:49;;;;;;;1999.90;999.90;;;31.10;99.90;;;;;;5095913;28;20496;-68
2023/08/15 09:38:26;;;;;;;1999.90;999.90;;;31.20;99.90;;;;;;5096156;28;20454;-67
2023/08/15 09:40:56;;;;;;;1999.90;999.90;;;31.30;99.90;;;;;;5096365;28;20495;-68
2023/08/15 09:43:24;;;;;;;1999.90;999.90;;;31.40;99.90;;;;;;5095202;28;20438;-67
2023/08/15 09:45:53;;;;;;;1999.90;999.90;;;31.60;99.90;;;;;;5096186;28;21013;-68
2023/08/15 09:48:21;;;;;;;1999.90;999.90;;;31.70;99.90;;;;;;5096109;28;20495;-69
2023/08/15 09:50:49;;;;;;;1999.90;999.90;;;31.70;99.90;;;;;;5095953;28;20580;-68
2023/08/15 09:53:18;;;;;;;1999.90;999.90;;;31.70;99.90;;;;;;5094928;28;20442;-65
2023/08/15 09:55:46;;;;;;;1999.90;999.90;;;31.70;99.90;;;;;;5096208;28;20826;-66
2023/08/15 09:58:16;;;;;;;1999.90;999.90;;;31.70;99.90;;;;;;5095852;28;20541;-66
2023/08/15 10:00:48;;;;;;;1999.90;999.90;;;31.70;99.90;;;;;;5096395;28;20446;-65
2023/08/15 10:03:20;;;;;;;1999.90;999.90;;;31.70;99.90;;;;;;5094933;28;20434;-65
2023/08/15 10:05:53;;;;;;;1999.90;999.90;;;31.80;99.90;;;;;;5095925;28;20461;-66
2023/08/15 10:08:22;;;;;;;1999.90;999.90;;;32.20;99.90;;;;;;5096224;28;20422;-66
2023/08/15 10:10:52;;;;;;;1999.90;999.90;;;32.70;99.90;;;;;;5095632;28;20570;-66
2023/08/15 10:13:25;;;;;;;1999.90;999.90;;;33.10;99.80;;;;;;5094867;28;20466;-65
2023/08/15 10:15:54;;;;;;;1999.90;999.90;;;32.90;93.50;;;;;;5095927;28;20484;-65
2023/08/15 10:18:25;;;;;;;1999.90;999.90;;;32.30;91.50;;;;;;5097116;28;20433;-64
2023/08/15 10:20:56;;;;;;;1999.90;999.90;;;31.60;83.90;;;;;;5095570;28;20438;-64
2023/08/15 10:23:29;;;;;;;1999.90;999.90;;;30.70;82.20;;;;;;5094696;28;20438;-65
2023/08/15 10:25:58;;;;;;;1999.90;999.90;;;30.20;83.30;;;;;;5096323;28;20934;-64
2023/08/15 10:28:32;;;;;;;1999.90;999.90;;;29.90;84.60;;;;;;5094565;28;20446;-64
2023/08/15 10:31:01;;;;;;;1999.90;999.90;;;29.90;82.00;;;;;;5093106;28;20461;-65
2023/08/15 10:33:31;;;;;;;1999.90;999.90;;;29.90;82.10;;;;;;5091669;28;20446;-64
2023/08/15 10:36:08;;;;;;;1999.90;999.90;;;29.70;80.90;;;;;;5092638;28;20556;-65
2023/08/15 10:38:40;;;;;;;1999.90;999.90;;;29.60;81.70;;;;;;5092248;28;20829;-64
2023/08/15 10:41:13;;;;;;;1999.90;999.90;;;29.50;82.40;;;;;;5092552;28;20442;-64
2023/08/15 10:43:47;;;;;;;1999.90;999.90;;;29.40;84.00;;;;;;5091281;28;20435;-68
2023/08/15 10:46:17;;;;;;;1999.90;999.90;;;29.50;83.90;;;;;;5092278;28;20454;-68
2023/08/15 10:48:49;;;;;;;1999.90;999.90;;;29.60;82.00;;;;;;5092553;28;20442;-68
2023/08/15 10:51:21;;;;;;;1999.90;999.90;;;29.80;82.30;;;;;;5029429;28;20472;-67
2023/08/15 10:53:49;;;;;;;1999.90;999.90;;;29.80;86.70;;;;;;5027894;28;20536;-67
2023/08/15 10:56:19;;;;;;;1999.90;999.90;;;29.90;83.40;;;;;;5029058;28;20464;-67
2023/08/15 10:58:52;;;;;;;1999.90;999.90;;;29.90;83.80;;;;;;5029134;28;20571;-68
2023/08/15 11:01:22;;;;;;;1999.90;999.90;;;29.80;81.30;;;;;;5029342;28;20516;-67
2023/08/15 11:03:52;;;;;;;1999.90;999.90;;;30.10;83.40;;;;;;5027900;28;20437;-67
2023/08/15 11:06:20;;;;;;;1999.90;999.90;;;31.00;80.20;;;;;;5029112;28;20548;-68
2023/08/15 11:08:50;;;;;;;1999.90;999.90;;;31.40;71.90;;;;;;5028868;28;21072;-68
2023/08/15 11:11:19;;;;;;;1999.90;999.90;;;31.40;70.30;;;;;;5028804;28;20511;-68
2023/08/15 11:13:50;;;;;;;1999.90;999.90;;;32.00;72.40;;;;;;5027890;28;20448;-68
2023/08/15 11:16:20;;;;;;;1999.90;999.90;;;32.50;66.30;;;;;;5066430;28;20458;-68
2023/08/15 11:18:49;;;;;;;1999.90;999.90;;;32.30;63.90;;;;;;5092132;28;20493;-68
2023/08/15 11:21:18;;;;;;;1999.90;999.90;;;32.40;64.40;;;;;;5091613;28;20430;-68
2023/08/15 11:23:46;;;;;;;1999.90;999.90;;;31.80;63.80;;;;;;5090575;28;20450;-67
2023/08/15 11:26:18;;;;;;;1999.90;999.90;;;31.10;67.40;;;;;;5091289;28;20458;-68
2023/08/15 11:28:49;;;;;;;1999.90;999.90;;;30.60;69.30;;;;;;5091491;28;20489;-69
2023/08/15 11:31:17;;;;;;;1999.90;999.90;;;30.20;70.20;;;;;;5091414;28;20477;-68
2023/08/15 11:33:51;;;;;;;1999.90;999.90;;;30.00;73.80;;;;;;5090301;28;20974;-67
2023/08/15 11:36:19;;;;;;;1999.90;999.90;;;29.80;75.60;;;;;;5091190;28;20458;-67
2023/08/15 11:38:47;;;;;;;1999.90;999.90;;;29.90;74.80;;;;;;5091418;28;20507;-67
2023/08/15 11:41:15;;;;;;;1999.90;999.90;;;30.30;72.30;;;;;;5090336;28;20442;-67
2023/08/15 11:43:43;;;;;;;1999.90;999.90;;;31.10;72.90;;;;;;5089765;28;20503;-67
2023/08/15 11:46:13;;;;;;;1999.90;999.90;;;31.40;71.50;;;;;;5091205;28;20466;-67
2023/08/15 11:48:45;;;;;;;1999.90;999.90;;;31.90;71.00;;;;;;5090845;28;20999;-67
2023/08/15 11:51:19;;;;;;;1999.90;999.90;;;32.40;66.90;;;;;;5090984;28;20474;-67
2023/08/15 11:53:54;;;;;;;1999.90;999.90;;;32.40;67.90;;;;;;5089943;28;20797;-67
2023/08/15 11:56:22;;;;;;;1999.90;999.90;;;32.40;67.00;;;;;;5091164;28;20469;-68
2023/08/15 11:58:50;;;;;;;1999.90;999.90;;;32.60;66.90;;;;;;5091181;28;20541;-68
2023/08/15 12:01:25;;;;;;;1999.90;999.90;;;32.80;68.20;;;;;;5090597;28;20447;-68
2023/08/15 12:03:55;;;;;;;1999.90;999.90;;;33.10;66.70;;;;;;5089824;28;20438;-67
2023/08/15 12:06:23;;;;;;;1999.90;999.90;;;33.20;67.20;;;;;;5090977;28;20450;-68
2023/08/15 12:08:52;;;;;;;1999.90;999.90;;;33.30;65.50;;;;;;5090696;28;20446;-67
2023/08/15 12:11:23;;;;;;;1999.90;999.90;;;33.30;66.70;;;;;;5090676;28;20543;-68